createdAt,value
2023-12-15T00:02:10.712Z,41.60
2023-12-15T00:04:39.897Z,43.15
2023-12-15T00:07:07.695Z,47.03
2023-12-15T00:09:35.598Z,40.75
2023-12-15T00:12:03.600Z,45.70
2023-12-15T00:14:31.725Z,44.72
2023-12-15T00:16:59.550Z,39.33
2023-12-15T00:19:26.709Z,41.85
2023-12-15T00:21:55.886Z,44.95
2023-12-15T00:24:23.768Z,42.25
2023-12-15T00:26:51.650Z,40.90
2023-12-15T00:29:20.081Z,44.35
2023-12-15T00:31:47.927Z,44.42
2023-12-15T00:34:15.876Z,44.75
2023-12-15T00:36:43.755Z,42.70
2023-12-15T00:39:12.996Z,43.95
2023-12-15T00:41:40.780Z,38.17
2023-12-15T00:44:08.686Z,39.28
2023-12-15T00:46:36.516Z,43.58
2023-12-15T00:49:04.593Z,36.30
2023-12-15T00:51:32.481Z,37.80
2023-12-15T00:54:00.278Z,37.45
2023-12-15T00:56:29.526Z,39.33
2023-12-15T00:58:57.390Z,36.88
2023-12-15T01:01:25.450Z,37.35
2023-12-15T01:03:53.515Z,40.88
2023-12-15T01:06:21.472Z,37.88
2023-12-15T01:08:49.343Z,43.45
2023-12-15T01:11:17.449Z,40.33
2023-12-15T01:13:46.585Z,38.72
2023-12-15T01:16:14.416Z,40.30
2023-12-15T01:18:42.337Z,43.08
2023-12-15T01:21:09.477Z,47.00
2023-12-15T01:23:38.904Z,40.38
2023-12-15T01:28:33.622Z,42.22
2023-12-15T01:31:03.990Z,43.38
2023-12-15T01:33:33.422Z,50.55
2023-12-15T01:38:29.076Z,43.80
2023-12-15T01:40:56.970Z,50.10
2023-12-15T01:43:24.838Z,51.15
2023-12-15T01:45:58.639Z,49.15
2023-12-15T01:48:34.587Z,52.10
2023-12-15T01:51:03.540Z,54.55
2023-12-15T01:53:31.394Z,55.72
2023-12-15T01:55:59.273Z,55.08
2023-12-15T01:58:27.123Z,54.30
2023-12-15T02:00:55.298Z,57.17
2023-12-15T02:03:23.333Z,54.40
2023-12-15T02:05:52.609Z,56.60
2023-12-15T02:08:20.563Z,61.40
2023-12-15T02:10:48.384Z,58.33
2023-12-15T02:13:16.209Z,61.08
2023-12-15T02:15:44.410Z,58.65
2023-12-15T02:18:13.101Z,58.17
2023-12-15T02:20:41.107Z,61.22
2023-12-15T02:23:10.348Z,59.67
2023-12-15T02:25:38.239Z,64.05
2023-12-15T02:28:06.438Z,59.45
2023-12-15T02:30:34.398Z,63.95
2023-12-15T02:33:02.668Z,64.32
2023-12-15T02:35:31.481Z,65.93
2023-12-15T02:37:59.389Z,66.10
2023-12-15T02:40:28.621Z,66.07
2023-12-15T02:42:56.419Z,57.25
2023-12-15T02:45:24.216Z,62.78
2023-12-15T02:47:52.177Z,67.22
2023-12-15T02:50:20.311Z,65.18
2023-12-15T02:52:49.276Z,58.60
2023-12-15T02:55:17.070Z,60.85
2023-12-15T02:57:46.274Z,58.97
2023-12-15T03:00:15.181Z,58.35
2023-12-15T03:02:43.271Z,57.67
2023-12-15T03:05:11.571Z,66.85
2023-12-15T03:07:39.831Z,66.00
2023-12-15T03:10:08.303Z,64.65
2023-12-15T03:12:36.807Z,65.75
2023-12-15T03:15:06.967Z,71.90
2023-12-15T03:17:35.115Z,72.35
2023-12-15T03:20:04.966Z,67.50
2023-12-15T03:22:32.797Z,72.22
2023-12-15T03:25:00.849Z,70.97
2023-12-15T03:27:28.641Z,83.80
2023-12-15T03:29:56.468Z,75.45
2023-12-15T03:32:25.648Z,74.68
2023-12-15T03:34:53.567Z,81.03
2023-12-15T03:37:22.492Z,76.22
2023-12-15T03:39:50.301Z,75.68
2023-12-15T03:42:18.072Z,86.13
2023-12-15T03:44:45.852Z,77.88
2023-12-15T03:47:13.990Z,78.25
2023-12-15T03:49:43.218Z,89.00
2023-12-15T03:52:11.000Z,90.38
2023-12-15T03:54:38.857Z,83.35
2023-12-15T03:57:07.038Z,93.15
2023-12-15T03:59:35.252Z,89.78
2023-12-15T04:02:03.078Z,89.65
2023-12-15T04:04:31.113Z,95.93
2023-12-15T04:07:00.328Z,91.40
2023-12-15T04:09:28.394Z,88.20
2023-12-15T04:11:56.221Z,94.25
2023-12-15T04:14:24.258Z,93.18
2023-12-15T04:16:52.099Z,100.57
2023-12-15T04:19:20.229Z,100.90
2023-12-15T04:21:48.110Z,98.30
2023-12-15T04:24:17.570Z,98.07
2023-12-15T04:29:13.881Z,102.88
2023-12-15T04:31:41.673Z,111.57
2023-12-15T04:34:09.566Z,108.57
2023-12-15T04:36:39.539Z,105.45
2023-12-15T04:39:08.040Z,116.40
2023-12-15T04:41:37.198Z,104.03
2023-12-15T04:44:05.189Z,108.93
2023-12-15T04:46:33.766Z,125.03
2023-12-15T04:49:02.095Z,123.30
2023-12-15T04:51:30.596Z,114.85
2023-12-15T04:53:58.437Z,115.80
2023-12-15T04:56:26.611Z,118.28
2023-12-15T04:58:55.909Z,121.18
2023-12-15T05:01:26.460Z,124.03
2023-12-15T05:03:54.346Z,127.43
2023-12-15T05:06:23.799Z,122.10
2023-12-15T05:11:20.835Z,119.18
2023-12-15T05:13:49.508Z,113.93
2023-12-15T05:16:18.900Z,107.35
2023-12-15T05:21:14.646Z,119.63
2023-12-15T05:23:42.536Z,119.57
2023-12-15T05:26:10.397Z,131.70
2023-12-15T05:28:38.201Z,135.90
2023-12-15T05:31:06.478Z,134.45
2023-12-15T05:33:35.733Z,125.90
2023-12-15T05:36:04.214Z,129.60
2023-12-15T05:38:32.054Z,130.65
2023-12-15T05:40:59.904Z,129.07
2023-12-15T05:43:27.730Z,134.13
2023-12-15T05:45:55.512Z,136.88
2023-12-15T05:48:23.697Z,142.32
2023-12-15T05:50:53.114Z,139.10
2023-12-15T05:53:20.971Z,144.68
2023-12-15T05:55:49.215Z,141.70
2023-12-15T05:58:17.257Z,135.57
2023-12-15T06:00:45.096Z,146.07
2023-12-15T06:03:15.321Z,146.07
2023-12-15T06:05:43.489Z,141.95
2023-12-15T06:08:14.921Z,147.85
2023-12-15T06:10:43.340Z,138.40
2023-12-15T06:13:11.480Z,148.48
2023-12-15T06:15:39.518Z,140.35
2023-12-15T06:18:07.766Z,147.68
2023-12-15T06:20:35.751Z,156.68
2023-12-15T06:23:03.594Z,146.55
2023-12-15T06:25:32.803Z,154.32
2023-12-15T06:28:00.638Z,143.07
2023-12-15T06:30:28.682Z,151.27
2023-12-15T06:32:56.558Z,149.35
2023-12-15T06:35:24.437Z,145.75
2023-12-15T06:37:52.451Z,150.75
2023-12-15T06:40:20.257Z,148.38
2023-12-15T06:42:49.425Z,161.40
2023-12-15T06:45:17.246Z,154.40
2023-12-15T06:47:45.329Z,159.20
2023-12-15T06:50:13.257Z,154.35
2023-12-15T06:52:41.533Z,155.23
2023-12-15T06:55:10.047Z,165.05
2023-12-15T06:57:38.123Z,156.50
2023-12-15T07:00:08.992Z,177.80
2023-12-15T07:02:37.560Z,171.07
2023-12-15T07:05:06.124Z,162.13
2023-12-15T07:07:34.345Z,151.50
2023-12-15T07:10:02.426Z,148.13
2023-12-15T07:12:30.239Z,153.10
2023-12-15T07:14:58.090Z,154.98
2023-12-15T07:17:27.312Z,150.50
2023-12-15T07:19:55.174Z,169.45
2023-12-15T07:22:23.040Z,173.77
2023-12-15T07:24:50.890Z,170.43
2023-12-15T07:27:18.727Z,156.40
2023-12-15T07:29:46.803Z,168.65
2023-12-15T07:32:14.735Z,153.50
2023-12-15T07:34:43.996Z,159.32
2023-12-15T07:37:14.101Z,147.43
2023-12-15T07:39:42.144Z,149.20
2023-12-15T07:42:10.177Z,153.50
2023-12-15T07:44:38.773Z,140.32
2023-12-15T07:47:06.968Z,137.90
2023-12-15T07:49:35.640Z,139.45
2023-12-15T07:52:05.375Z,143.07
2023-12-15T07:54:33.242Z,143.55
2023-12-15T07:57:01.230Z,140.02
2023-12-15T07:59:29.119Z,141.30
2023-12-15T08:01:57.290Z,142.02
2023-12-15T08:04:25.125Z,139.05
2023-12-15T08:06:52.938Z,124.63
2023-12-15T08:09:22.094Z,125.13
2023-12-15T08:11:49.973Z,115.10
2023-12-15T08:14:17.793Z,129.35
2023-12-15T08:16:45.873Z,124.28
2023-12-15T08:19:13.760Z,121.00
2023-12-15T08:21:41.620Z,104.68
2023-12-15T08:24:09.445Z,123.60
2023-12-15T08:26:38.680Z,108.25
2023-12-15T08:29:06.596Z,111.55
2023-12-15T08:31:34.431Z,107.82
2023-12-15T08:34:02.583Z,105.82
2023-12-15T08:36:30.459Z,109.22
2023-12-15T08:38:58.309Z,102.50
2023-12-15T08:41:26.384Z,107.38
2023-12-15T08:43:55.917Z,98.85
2023-12-15T08:46:25.107Z,100.78
2023-12-15T08:48:53.006Z,106.85
2023-12-15T08:51:20.923Z,110.63
2023-12-15T08:53:48.915Z,116.22
2023-12-15T08:56:16.983Z,111.13
2023-12-15T08:58:45.097Z,111.35
2023-12-15T09:01:14.271Z,95.88
2023-12-15T09:03:42.134Z,96.88
2023-12-15T09:06:25.728Z,93.47
2023-12-15T09:08:57.057Z,92.97
2023-12-15T09:11:25.362Z,88.17
2023-12-15T09:13:53.180Z,86.82
2023-12-15T09:16:22.405Z,82.10
2023-12-15T09:18:50.320Z,81.65
2023-12-15T09:21:18.186Z,83.93
2023-12-15T09:23:46.097Z,87.93
2023-12-15T09:26:13.950Z,82.55
2023-12-15T09:28:41.801Z,87.22
2023-12-15T09:31:11.673Z,89.40
2023-12-15T09:33:40.898Z,82.85
2023-12-15T09:36:09.617Z,79.10
2023-12-15T09:38:37.476Z,85.90
2023-12-15T09:41:05.972Z,85.18
2023-12-15T09:43:33.905Z,83.73
2023-12-15T09:46:01.738Z,86.40
2023-12-15T09:48:30.395Z,78.47
2023-12-15T09:51:04.046Z,81.32
2023-12-15T09:53:35.971Z,76.28
2023-12-15T09:56:04.515Z,74.53
2023-12-15T09:58:32.401Z,73.50
2023-12-15T10:01:00.272Z,81.00
2023-12-15T10:03:28.582Z,79.68
2023-12-15T10:05:56.645Z,74.20
2023-12-15T10:08:26.226Z,80.65
2023-12-15T10:10:54.380Z,71.93
2023-12-15T10:13:22.255Z,87.57
2023-12-15T10:15:52.790Z,76.25
2023-12-15T10:18:28.826Z,81.22
2023-12-15T10:21:00.953Z,72.03
2023-12-15T10:23:31.621Z,74.00
2023-12-15T10:26:01.283Z,85.72
2023-12-15T10:28:36.266Z,79.65
2023-12-15T10:31:05.083Z,71.07
2023-12-15T10:33:34.856Z,74.57
2023-12-15T10:36:03.479Z,64.22
2023-12-15T10:38:33.050Z,72.37
2023-12-15T10:41:01.979Z,70.82
2023-12-15T10:43:30.526Z,67.50
2023-12-15T10:46:04.340Z,71.00
2023-12-15T10:48:33.913Z,75.50
2023-12-15T10:51:03.041Z,68.47
2023-12-15T10:53:34.835Z,66.38
2023-12-15T10:56:03.681Z,68.10
2023-12-15T10:58:32.373Z,65.10
2023-12-15T11:01:02.661Z,69.00
2023-12-15T11:03:30.746Z,68.25
2023-12-15T11:06:00.327Z,68.88
2023-12-15T11:08:28.357Z,70.22
2023-12-15T11:10:57.858Z,68.95
2023-12-15T11:13:52.099Z,62.35
2023-12-15T11:16:20.187Z,65.25
2023-12-15T11:18:50.637Z,61.55
2023-12-15T11:21:19.107Z,67.55
2023-12-15T11:23:57.223Z,56.55
2023-12-15T11:26:31.041Z,60.63
2023-12-15T11:29:04.702Z,54.95
2023-12-15T11:31:35.410Z,47.78
2023-12-15T11:34:04.371Z,51.38
2023-12-15T11:36:42.139Z,50.00
2023-12-15T11:39:13.697Z,53.13
2023-12-15T11:41:44.463Z,58.30
2023-12-15T11:44:12.373Z,50.67
2023-12-15T11:46:40.182Z,51.30
2023-12-15T11:49:09.706Z,52.35
2023-12-15T11:51:38.904Z,52.90
2023-12-15T11:54:07.696Z,47.50
2023-12-15T11:56:36.116Z,53.35
2023-12-15T11:59:05.389Z,47.20
2023-12-15T12:01:37.290Z,53.88
2023-12-15T12:04:06.155Z,48.72
2023-12-15T12:06:34.453Z,51.80
2023-12-15T12:09:02.401Z,49.17
2023-12-15T12:11:31.607Z,49.92
2023-12-15T12:14:02.084Z,42.78
2023-12-15T12:16:33.769Z,42.83
2023-12-15T12:19:02.728Z,47.53
2023-12-15T12:21:30.924Z,45.70
2023-12-15T12:24:00.358Z,42.90
2023-12-15T12:29:01.744Z,38.10
2023-12-15T12:31:32.314Z,43.53
2023-12-15T12:34:00.245Z,40.28
2023-12-15T12:36:30.114Z,40.63
2023-12-15T12:38:57.958Z,47.22
2023-12-15T12:41:25.852Z,48.50
2023-12-15T12:43:54.780Z,36.92
2023-12-15T12:46:23.069Z,40.33
2023-12-15T12:48:52.505Z,53.17
2023-12-15T12:51:20.609Z,43.30
2023-12-15T12:53:49.026Z,42.50
2023-12-15T12:56:17.699Z,44.17
2023-12-15T12:58:45.581Z,41.22
2023-12-15T13:01:13.611Z,47.47
2023-12-15T13:03:41.562Z,47.92
2023-12-15T13:06:11.206Z,57.45
2023-12-15T13:08:39.491Z,54.47
2023-12-15T13:11:07.640Z,40.97
2023-12-15T13:13:35.459Z,38.08
2023-12-15T13:16:03.787Z,35.05
2023-12-15T13:18:31.947Z,36.03
2023-12-15T13:21:00.125Z,38.53
2023-12-15T13:23:30.077Z,36.60
2023-12-15T13:25:58.168Z,40.13
2023-12-15T13:28:29.138Z,35.83
2023-12-15T13:31:00.251Z,39.55
2023-12-15T13:33:29.092Z,37.40
2023-12-15T13:36:07.167Z,38.58
2023-12-15T13:38:43.008Z,40.58
2023-12-15T13:41:11.102Z,39.70
2023-12-15T13:43:39.320Z,36.35
2023-12-15T13:46:08.835Z,35.72
2023-12-15T13:48:37.383Z,37.40
2023-12-15T13:51:06.341Z,37.22
2023-12-15T13:53:34.284Z,28.90
2023-12-15T13:56:03.951Z,30.00
2023-12-15T13:58:31.886Z,33.60
2023-12-15T14:00:59.957Z,29.55
2023-12-15T14:03:28.535Z,29.88
2023-12-15T14:05:56.700Z,29.48
2023-12-15T14:08:24.665Z,30.63
2023-12-15T14:10:52.475Z,33.70
2023-12-15T14:13:21.685Z,31.52
2023-12-15T14:15:49.622Z,31.77
2023-12-15T14:18:17.626Z,32.03
2023-12-15T14:20:45.633Z,28.80
2023-12-15T14:23:13.959Z,33.40
2023-12-15T14:25:42.139Z,32.08
2023-12-15T14:28:10.010Z,39.83
2023-12-15T14:30:39.218Z,31.88
2023-12-15T14:33:08.174Z,28.70
2023-12-15T14:35:36.335Z,28.40
2023-12-15T14:38:04.452Z,29.63
2023-12-15T14:40:32.537Z,28.70
2023-12-15T14:43:00.740Z,23.88
2023-12-15T14:45:28.591Z,28.48
2023-12-15T14:48:19.093Z,25.00
2023-12-15T14:50:47.846Z,25.52
2023-12-15T14:53:15.716Z,25.60
2023-12-15T14:55:43.634Z,32.10
2023-12-15T14:58:11.705Z,27.92
2023-12-15T15:00:39.486Z,32.60
2023-12-15T15:03:08.777Z,25.52
2023-12-15T15:05:36.865Z,28.10
2023-12-15T15:08:04.881Z,25.42
2023-12-15T15:10:32.684Z,30.70
2023-12-15T15:13:00.990Z,29.60
2023-12-15T15:15:28.855Z,28.13
2023-12-15T15:17:57.079Z,34.88
2023-12-15T15:20:26.366Z,37.33
2023-12-15T15:22:54.614Z,30.67
2023-12-15T15:25:22.565Z,30.40
2023-12-15T15:27:50.446Z,26.10
2023-12-15T15:30:18.477Z,33.10
2023-12-15T15:32:53.126Z,30.98
2023-12-15T15:35:22.253Z,30.98
2023-12-15T15:37:51.890Z,27.98
2023-12-15T15:40:19.809Z,30.02
2023-12-15T15:42:48.578Z,30.55
2023-12-15T15:45:16.542Z,28.20
2023-12-15T15:47:44.461Z,26.88
2023-12-15T15:50:12.513Z,29.17
2023-12-15T15:52:42.992Z,32.40
2023-12-15T15:55:16.064Z,24.88
2023-12-15T15:57:45.146Z,33.78
2023-12-15T16:00:14.106Z,24.75
2023-12-15T16:02:42.048Z,24.80
2023-12-15T16:05:10.217Z,25.83
2023-12-15T16:07:38.319Z,21.30
2023-12-15T16:10:07.252Z,26.13
2023-12-15T16:12:36.454Z,24.17
2023-12-15T16:15:04.673Z,30.25
2023-12-15T16:17:33.986Z,21.55
2023-12-15T16:22:29.679Z,18.10
2023-12-15T16:24:57.610Z,22.05
2023-12-15T16:27:25.448Z,21.88
2023-12-15T16:29:54.756Z,22.85
2023-12-15T16:32:22.723Z,18.83
2023-12-15T16:34:50.546Z,23.42
2023-12-15T16:37:18.368Z,20.80
2023-12-15T16:39:47.156Z,19.20
2023-12-15T16:42:15.399Z,17.92
2023-12-15T16:44:49.740Z,22.05
2023-12-15T16:47:19.320Z,20.98
2023-12-15T16:49:47.414Z,15.65
2023-12-15T16:52:15.668Z,18.48
2023-12-15T16:54:43.804Z,17.27
2023-12-15T16:57:12.279Z,24.90
2023-12-15T16:59:42.623Z,22.08
2023-12-15T17:02:10.602Z,24.75
2023-12-15T17:04:39.832Z,23.73
2023-12-15T17:07:08.304Z,24.58
2023-12-15T17:09:36.149Z,21.52
2023-12-15T17:12:06.021Z,18.10
2023-12-15T17:14:34.043Z,23.60
2023-12-15T17:17:01.876Z,18.33
2023-12-15T17:19:29.872Z,19.60
2023-12-15T17:21:59.223Z,21.48
2023-12-15T17:24:27.145Z,24.25
2023-12-15T17:26:55.225Z,20.48
2023-12-15T17:29:25.809Z,18.33
2023-12-15T17:31:55.563Z,21.30
2023-12-15T17:34:23.752Z,17.40
2023-12-15T17:36:56.788Z,20.13
2023-12-15T17:39:26.683Z,23.48
2023-12-15T17:41:55.044Z,21.42
2023-12-15T17:44:22.906Z,20.08
2023-12-15T17:46:50.725Z,23.40
2023-12-15T17:49:18.709Z,25.33
2023-12-15T17:51:46.597Z,20.63
2023-12-15T17:54:15.642Z,24.73
2023-12-15T17:56:44.799Z,21.95
2023-12-15T17:59:12.590Z,23.13
2023-12-15T18:01:40.967Z,22.17
2023-12-15T18:04:09.006Z,16.83
2023-12-15T18:06:37.665Z,19.67
2023-12-15T18:09:06.828Z,15.85
2023-12-15T18:11:34.731Z,18.50
2023-12-15T18:14:06.732Z,20.20
2023-12-15T18:16:34.788Z,15.25
2023-12-15T18:19:02.669Z,19.75
2023-12-15T18:21:32.376Z,17.85
2023-12-15T18:24:00.419Z,19.25
2023-12-15T18:27:29.951Z,15.35
2023-12-15T18:30:17.087Z,14.57
2023-12-15T18:33:03.639Z,20.17
2023-12-15T18:35:49.864Z,25.77
2023-12-15T18:38:37.896Z,10.73
2023-12-15T18:42:33.946Z,11.63
2023-12-15T18:45:43.107Z,17.47
2023-12-15T18:48:49.949Z,10.20
2023-12-15T18:51:56.962Z,12.95
2023-12-15T18:55:04.165Z,13.65
2023-12-15T18:58:59.401Z,17.80
2023-12-15T19:02:06.295Z,12.68
2023-12-15T19:05:14.270Z,18.77
2023-12-15T19:08:21.248Z,13.13
2023-12-15T19:11:29.117Z,13.93
2023-12-15T19:14:37.629Z,17.95
2023-12-15T19:17:44.617Z,13.63
2023-12-15T19:20:51.237Z,14.07
2023-12-15T19:23:58.072Z,14.23
2023-12-15T19:27:05.393Z,11.40
2023-12-15T19:30:14.211Z,9.90
2023-12-15T19:33:21.063Z,13.98
2023-12-15T19:36:28.497Z,10.88
2023-12-15T19:39:36.549Z,13.77
2023-12-15T19:42:43.481Z,12.13
2023-12-15T19:45:51.596Z,14.10
2023-12-15T19:48:58.537Z,9.43
2023-12-15T19:52:05.588Z,18.42
2023-12-15T19:55:14.405Z,14.82
2023-12-15T19:58:21.358Z,14.35
2023-12-15T20:01:30.887Z,10.52
2023-12-15T20:04:38.058Z,13.13
2023-12-15T20:07:44.819Z,13.82
2023-12-15T20:10:51.784Z,16.60
2023-12-15T20:13:58.765Z,15.90
2023-12-15T20:17:07.274Z,15.60
2023-12-15T20:20:14.496Z,15.07
2023-12-15T20:23:21.481Z,11.95
2023-12-15T20:26:28.350Z,11.20
2023-12-15T20:29:35.067Z,10.50
2023-12-15T20:32:43.695Z,9.60
2023-12-15T20:35:50.280Z,11.43
2023-12-15T20:38:57.061Z,14.20
2023-12-15T20:42:04.524Z,13.32
2023-12-15T20:45:11.894Z,15.68
2023-12-15T20:48:20.172Z,11.80
2023-12-15T20:51:27.578Z,13.80
2023-12-15T20:54:34.640Z,18.38
2023-12-15T20:57:42.349Z,15.45
2023-12-15T21:00:49.586Z,10.85
2023-12-15T21:03:58.580Z,10.65
2023-12-15T21:07:08.429Z,12.55
2023-12-15T21:10:15.502Z,9.32
2023-12-15T21:13:22.472Z,16.45
2023-12-15T21:16:29.872Z,10.63
2023-12-15T21:19:38.441Z,11.80
2023-12-15T21:22:45.057Z,15.07
2023-12-15T21:25:51.984Z,15.10
2023-12-15T21:28:58.813Z,11.05
2023-12-15T21:32:06.340Z,8.88
2023-12-15T21:35:15.311Z,14.20
2023-12-15T21:38:22.302Z,15.25
2023-12-15T21:41:29.079Z,15.45
2023-12-15T21:44:36.024Z,12.15
2023-12-15T21:47:43.220Z,15.68
2023-12-15T21:50:51.658Z,12.55
2023-12-15T21:54:00.138Z,16.27
2023-12-15T21:57:08.954Z,14.27
2023-12-15T22:00:16.910Z,12.82
2023-12-15T22:03:23.859Z,8.13
2023-12-15T22:06:31.991Z,12.98
2023-12-15T22:09:38.842Z,9.13
2023-12-15T22:12:45.695Z,11.88
2023-12-15T22:15:52.415Z,13.77
2023-12-15T22:18:59.693Z,9.20
2023-12-15T22:22:08.206Z,12.63
2023-12-15T22:25:15.334Z,15.18
2023-12-15T22:28:22.374Z,17.30
2023-12-15T22:31:29.552Z,11.63
2023-12-15T22:34:36.590Z,17.45
2023-12-15T22:37:44.573Z,8.75
2023-12-15T22:40:51.486Z,10.68
2023-12-15T22:43:58.193Z,16.70
2023-12-15T22:47:05.671Z,11.13
2023-12-15T22:50:12.625Z,12.85
2023-12-15T22:53:20.630Z,11.52
2023-12-15T22:56:27.649Z,14.30
2023-12-15T22:59:34.625Z,15.50
2023-12-15T23:02:41.465Z,19.95
2023-12-15T23:05:48.586Z,13.32
2023-12-15T23:08:57.654Z,12.00
2023-12-15T23:15:18.278Z,14.77
2023-12-15T23:18:31.037Z,12.75
2023-12-15T23:21:38.427Z,12.40
2023-12-15T23:24:46.857Z,17.10
2023-12-15T23:27:53.707Z,13.40
2023-12-15T23:31:00.755Z,14.43
2023-12-15T23:34:07.773Z,11.48
2023-12-15T23:37:14.785Z,14.60
2023-12-15T23:40:23.569Z,11.20
2023-12-15T23:43:30.196Z,12.60
2023-12-15T23:46:38.363Z,11.73
2023-12-15T23:49:45.370Z,9.50
2023-12-15T23:52:52.220Z,7.63
2023-12-15T23:56:00.358Z,10.85
2023-12-15T23:59:08.243Z,9.77
